sensor_id;sensor_type;location;lat;lon;timestamp;P1;durP1;ratioP1;P2;durP2;ratioP2
48040;SDS011;33815;48.386;11.738;2022-12-18T00:01:52;71.70;;;26.45;;
48040;SDS011;33815;48.386;11.738;2022-12-18T00:04:21;66.45;;;23.75;;
48040;SDS011;33815;48.386;11.738;2022-12-18T00:06:48;55.60;;;21.02;;
48040;SDS011;33815;48.386;11.738;2022-12-18T00:09:14;72.10;;;23.67;;
48040;SDS011;33815;48.386;11.738;2022-12-18T00:11:39;68.18;;;23.05;;
48040;SDS011;33815;48.386;11.738;2022-12-18T00:14:05;62.33;;;25.52;;
48040;SDS011;33815;48.386;11.738;2022-12-18T00:16:30;59.15;;;21.33;;
48040;SDS011;33815;48.386;11.738;2022-12-18T00:18:58;64.90;;;22.92;;
48040;SDS011;33815;48.386;11.738;2022-12-18T00:21:25;52.97;;;22.02;;
48040;SDS011;33815;48.386;11.738;2022-12-18T00:23:51;61.03;;;23.13;;
48040;SDS011;33815;48.386;11.738;2022-12-18T00:26:18;69.20;;;24.15;;
48040;SDS011;33815;48.386;11.738;2022-12-18T00:28:48;66.90;;;24.77;;
48040;SDS011;33815;48.386;11.738;2022-12-18T00:31:15;60.45;;;23.75;;
48040;SDS011;33815;48.386;11.738;2022-12-18T00:33:41;62.40;;;21.13;;
48040;SDS011;33815;48.386;11.738;2022-12-18T00:36:09;78.22;;;25.52;;
48040;SDS011;33815;48.386;11.738;2022-12-18T00:38:39;64.82;;;23.60;;
48040;SDS011;33815;48.386;11.738;2022-12-18T00:41:05;66.95;;;21.55;;
48040;SDS011;33815;48.386;11.738;2022-12-18T00:43:31;61.00;;;21.73;;
48040;SDS011;33815;48.386;11.738;2022-12-18T00:45:57;66.32;;;23.85;;
48040;SDS011;33815;48.386;11.738;2022-12-18T00:48:22;56.97;;;22.23;;
48040;SDS011;33815;48.386;11.738;2022-12-18T00:50:48;57.17;;;22.73;;
48040;SDS011;33815;48.386;11.738;2022-12-18T00:53:14;58.15;;;23.77;;
48040;SDS011;33815;48.386;11.738;2022-12-18T00:55:40;67.38;;;24.23;;
48040;SDS011;33815;48.386;11.738;2022-12-18T00:58:06;67.97;;;24.73;;
48040;SDS011;33815;48.386;11.738;2022-12-18T01:00:32;56.30;;;21.85;;
48040;SDS011;33815;48.386;11.738;2022-12-18T01:02:58;67.05;;;23.85;;
48040;SDS011;33815;48.386;11.738;2022-12-18T01:05:23;63.40;;;23.02;;
48040;SDS011;33815;48.386;11.738;2022-12-18T01:07:49;59.45;;;23.85;;
48040;SDS011;33815;48.386;11.738;2022-12-18T01:10:14;66.13;;;24.52;;
48040;SDS011;33815;48.386;11.738;2022-12-18T01:12:39;63.17;;;24.45;;
48040;SDS011;33815;48.386;11.738;2022-12-18T01:15:05;62.92;;;22.83;;
48040;SDS011;33815;48.386;11.738;2022-12-18T01:17:32;57.92;;;23.27;;
48040;SDS011;33815;48.386;11.738;2022-12-18T01:19:58;57.60;;;22.10;;
48040;SDS011;33815;48.386;11.738;2022-12-18T01:22:23;58.42;;;22.92;;
48040;SDS011;33815;48.386;11.738;2022-12-18T01:24:49;61.58;;;22.50;;
48040;SDS011;33815;48.386;11.738;2022-12-18T01:27:14;60.22;;;23.42;;
48040;SDS011;33815;48.386;11.738;2022-12-18T01:29:39;60.60;;;21.75;;
48040;SDS011;33815;48.386;11.738;2022-12-18T01:32:05;62.47;;;23.45;;
48040;SDS011;33815;48.386;11.738;2022-12-18T01:34:30;60.90;;;24.02;;
48040;SDS011;33815;48.386;11.738;2022-12-18T01:36:56;61.97;;;22.60;;
48040;SDS011;33815;48.386;11.738;2022-12-18T01:39:21;57.03;;;21.80;;
48040;SDS011;33815;48.386;11.738;2022-12-18T01:41:46;66.07;;;25.27;;
48040;SDS011;33815;48.386;11.738;2022-12-18T01:55:46;56.63;;;22.52;;
48040;SDS011;33815;48.386;11.738;2022-12-18T01:58:13;45.85;;;21.63;;
48040;SDS011;33815;48.386;11.738;2022-12-18T02:00:38;55.08;;;21.70;;
48040;SDS011;33815;48.386;11.738;2022-12-18T02:03:04;55.45;;;22.75;;
48040;SDS011;33815;48.386;11.738;2022-12-18T02:05:49;59.17;;;20.75;;
48040;SDS011;33815;48.386;11.738;2022-12-18T02:16:57;56.80;;;20.90;;
48040;SDS011;33815;48.386;11.738;2022-12-18T02:19:47;54.40;;;18.88;;
48040;SDS011;33815;48.386;11.738;2022-12-18T02:27:31;61.78;;;23.23;;
48040;SDS011;33815;48.386;11.738;2022-12-18T02:29:59;48.25;;;21.35;;
48040;SDS011;33815;48.386;11.738;2022-12-18T02:32:27;53.92;;;20.23;;
48040;SDS011;33815;48.386;11.738;2022-12-18T02:34:56;57.47;;;22.10;;
48040;SDS011;33815;48.386;11.738;2022-12-18T02:37:23;60.78;;;24.02;;
48040;SDS011;33815;48.386;11.738;2022-12-18T02:39:51;55.47;;;22.10;;
48040;SDS011;33815;48.386;11.738;2022-12-18T02:42:19;50.35;;;22.75;;
48040;SDS011;33815;48.386;11.738;2022-12-18T02:44:46;55.78;;;22.08;;
48040;SDS011;33815;48.386;11.738;2022-12-18T02:47:14;54.15;;;21.42;;
48040;SDS011;33815;48.386;11.738;2022-12-18T02:50:05;51.45;;;21.73;;
48040;SDS011;33815;48.386;11.738;2022-12-18T02:58:30;50.22;;;20.85;;
48040;SDS011;33815;48.386;11.738;2022-12-18T03:01:10;60.38;;;22.63;;
48040;SDS011;33815;48.386;11.738;2022-12-18T03:03:55;53.58;;;20.35;;
48040;SDS011;33815;48.386;11.738;2022-12-18T03:06:32;51.28;;;22.13;;
48040;SDS011;33815;48.386;11.738;2022-12-18T03:09:07;64.45;;;22.52;;
48040;SDS011;33815;48.386;11.738;2022-12-18T03:11:41;58.60;;;21.65;;
48040;SDS011;33815;48.386;11.738;2022-12-18T03:14:29;54.42;;;22.50;;
48040;SDS011;33815;48.386;11.738;2022-12-18T03:16:59;52.67;;;22.85;;
48040;SDS011;33815;48.386;11.738;2022-12-18T03:19:28;62.90;;;23.67;;
48040;SDS011;33815;48.386;11.738;2022-12-18T03:21:56;60.40;;;23.17;;
48040;SDS011;33815;48.386;11.738;2022-12-18T03:24:25;48.67;;;21.58;;
48040;SDS011;33815;48.386;11.738;2022-12-18T03:26:53;53.63;;;21.83;;
48040;SDS011;33815;48.386;11.738;2022-12-18T03:29:23;62.28;;;23.90;;
48040;SDS011;33815;48.386;11.738;2022-12-18T03:31:55;60.10;;;22.23;;
48040;SDS011;33815;48.386;11.738;2022-12-18T03:34:27;52.38;;;20.30;;
48040;SDS011;33815;48.386;11.738;2022-12-18T03:36:56;57.13;;;20.98;;
48040;SDS011;33815;48.386;11.738;2022-12-18T03:39:23;53.35;;;21.45;;
48040;SDS011;33815;48.386;11.738;2022-12-18T03:41:55;45.85;;;21.48;;
48040;SDS011;33815;48.386;11.738;2022-12-18T03:44:30;48.42;;;18.60;;
48040;SDS011;33815;48.386;11.738;2022-12-18T03:52:30;42.50;;;17.05;;
48040;SDS011;33815;48.386;11.738;2022-12-18T03:55:02;52.30;;;19.17;;
48040;SDS011;33815;48.386;11.738;2022-12-18T03:57:30;52.10;;;19.65;;
48040;SDS011;33815;48.386;11.738;2022-12-18T03:59:59;41.97;;;18.35;;
48040;SDS011;33815;48.386;11.738;2022-12-18T04:02:28;43.70;;;19.38;;
48040;SDS011;33815;48.386;11.738;2022-12-18T04:04:56;39.22;;;16.15;;
48040;SDS011;33815;48.386;11.738;2022-12-18T04:07:24;45.92;;;18.98;;
48040;SDS011;33815;48.386;11.738;2022-12-18T04:09:50;33.55;;;16.02;;
48040;SDS011;33815;48.386;11.738;2022-12-18T04:12:20;38.38;;;15.93;;
48040;SDS011;33815;48.386;11.738;2022-12-18T04:14:45;44.75;;;18.13;;
48040;SDS011;33815;48.386;11.738;2022-12-18T04:17:11;39.60;;;16.55;;
48040;SDS011;33815;48.386;11.738;2022-12-18T04:19:36;34.20;;;16.58;;
48040;SDS011;33815;48.386;11.738;2022-12-18T04:22:01;43.33;;;17.05;;
48040;SDS011;33815;48.386;11.738;2022-12-18T04:24:27;47.40;;;17.23;;
48040;SDS011;33815;48.386;11.738;2022-12-18T04:26:52;39.72;;;17.52;;
48040;SDS011;33815;48.386;11.738;2022-12-18T04:29:17;42.80;;;17.13;;
48040;SDS011;33815;48.386;11.738;2022-12-18T04:31:43;39.63;;;17.77;;
48040;SDS011;33815;48.386;11.738;2022-12-18T04:34:08;39.20;;;14.88;;
48040;SDS011;33815;48.386;11.738;2022-12-18T04:36:33;48.30;;;17.95;;
48040;SDS011;33815;48.386;11.738;2022-12-18T04:38:58;45.13;;;17.80;;
48040;SDS011;33815;48.386;11.738;2022-12-18T04:41:24;44.75;;;17.05;;
48040;SDS011;33815;48.386;11.738;2022-12-18T04:43:49;47.85;;;18.75;;
48040;SDS011;33815;48.386;11.738;2022-12-18T04:46:14;45.97;;;18.00;;
48040;SDS011;33815;48.386;11.738;2022-12-18T04:48:40;48.22;;;16.77;;
48040;SDS011;33815;48.386;11.738;2022-12-18T04:51:05;43.00;;;17.00;;
48040;SDS011;33815;48.386;11.738;2022-12-18T04:53:31;36.83;;;16.20;;
48040;SDS011;33815;48.386;11.738;2022-12-18T04:56:04;42.63;;;17.77;;
48040;SDS011;33815;48.386;11.738;2022-12-18T04:58:30;41.55;;;16.10;;
48040;SDS011;33815;48.386;11.738;2022-12-18T05:00:55;38.78;;;16.92;;
48040;SDS011;33815;48.386;11.738;2022-12-18T05:03:21;44.60;;;18.48;;
48040;SDS011;33815;48.386;11.738;2022-12-18T05:05:49;46.47;;;18.52;;
48040;SDS011;33815;48.386;11.738;2022-12-18T05:08:15;45.45;;;19.42;;
48040;SDS011;33815;48.386;11.738;2022-12-18T05:10:40;43.03;;;17.05;;
48040;SDS011;33815;48.386;11.738;2022-12-18T05:13:06;39.60;;;16.23;;
48040;SDS011;33815;48.386;11.738;2022-12-18T05:15:31;33.95;;;17.23;;
48040;SDS011;33815;48.386;11.738;2022-12-18T05:17:58;42.28;;;18.13;;
48040;SDS011;33815;48.386;11.738;2022-12-18T05:20:24;38.40;;;16.58;;
48040;SDS011;33815;48.386;11.738;2022-12-18T05:22:50;43.05;;;17.35;;
48040;SDS011;33815;48.386;11.738;2022-12-18T05:25:16;32.13;;;14.18;;
48040;SDS011;33815;48.386;11.738;2022-12-18T05:27:41;40.15;;;16.25;;
48040;SDS011;33815;48.386;11.738;2022-12-18T05:30:07;48.35;;;17.45;;
48040;SDS011;33815;48.386;11.738;2022-12-18T05:32:33;37.38;;;16.30;;
48040;SDS011;33815;48.386;11.738;2022-12-18T05:34:58;37.55;;;17.13;;
48040;SDS011;33815;48.386;11.738;2022-12-18T05:37:24;39.67;;;16.45;;
48040;SDS011;33815;48.386;11.738;2022-12-18T05:39:49;41.92;;;17.52;;
48040;SDS011;33815;48.386;11.738;2022-12-18T05:42:14;48.47;;;19.48;;
48040;SDS011;33815;48.386;11.738;2022-12-18T05:44:39;41.13;;;17.02;;
48040;SDS011;33815;48.386;11.738;2022-12-18T05:47:05;43.65;;;17.10;;
48040;SDS011;33815;48.386;11.738;2022-12-18T05:49:31;40.85;;;17.98;;
48040;SDS011;33815;48.386;11.738;2022-12-18T05:51:56;39.83;;;18.02;;
48040;SDS011;33815;48.386;11.738;2022-12-18T05:54:21;38.22;;;17.00;;
48040;SDS011;33815;48.386;11.738;2022-12-18T05:56:47;40.40;;;16.17;;
48040;SDS011;33815;48.386;11.738;2022-12-18T05:59:12;41.17;;;17.10;;
48040;SDS011;33815;48.386;11.738;2022-12-18T06:01:37;41.70;;;17.40;;
48040;SDS011;33815;48.386;11.738;2022-12-18T06:04:03;37.35;;;15.55;;
48040;SDS011;33815;48.386;11.738;2022-12-18T06:06:28;39.53;;;17.38;;
48040;SDS011;33815;48.386;11.738;2022-12-18T06:08:54;41.03;;;16.17;;
48040;SDS011;33815;48.386;11.738;2022-12-18T06:11:21;39.10;;;15.70;;
48040;SDS011;33815;48.386;11.738;2022-12-18T06:13:51;40.80;;;17.98;;
48040;SDS011;33815;48.386;11.738;2022-12-18T06:16:20;44.25;;;16.58;;
48040;SDS011;33815;48.386;11.738;2022-12-18T06:18:45;46.42;;;15.93;;
48040;SDS011;33815;48.386;11.738;2022-12-18T06:21:11;51.45;;;19.63;;
48040;SDS011;33815;48.386;11.738;2022-12-18T06:23:36;43.22;;;17.73;;
48040;SDS011;33815;48.386;11.738;2022-12-18T06:26:03;43.30;;;18.67;;
48040;SDS011;33815;48.386;11.738;2022-12-18T06:28:30;37.40;;;17.50;;
48040;SDS011;33815;48.386;11.738;2022-12-18T06:30:55;43.55;;;17.13;;
48040;SDS011;33815;48.386;11.738;2022-12-18T06:33:20;39.67;;;16.25;;
48040;SDS011;33815;48.386;11.738;2022-12-18T06:35:46;39.63;;;16.70;;
48040;SDS011;33815;48.386;11.738;2022-12-18T06:38:11;44.22;;;19.52;;
48040;SDS011;33815;48.386;11.738;2022-12-18T06:40:37;35.30;;;15.07;;
48040;SDS011;33815;48.386;11.738;2022-12-18T06:43:04;45.60;;;17.08;;
48040;SDS011;33815;48.386;11.738;2022-12-18T06:45:29;40.85;;;17.05;;
48040;SDS011;33815;48.386;11.738;2022-12-18T06:47:55;46.72;;;16.40;;
48040;SDS011;33815;48.386;11.738;2022-12-18T06:50:20;40.83;;;15.20;;
48040;SDS011;33815;48.386;11.738;2022-12-18T06:52:45;39.85;;;15.80;;
48040;SDS011;33815;48.386;11.738;2022-12-18T06:55:10;44.00;;;16.95;;
48040;SDS011;33815;48.386;11.738;2022-12-18T06:57:36;38.83;;;14.80;;
48040;SDS011;33815;48.386;11.738;2022-12-18T07:00:03;37.78;;;15.90;;
48040;SDS011;33815;48.386;11.738;2022-12-18T07:02:31;36.40;;;15.40;;
48040;SDS011;33815;48.386;11.738;2022-12-18T07:04:57;33.45;;;14.73;;
48040;SDS011;33815;48.386;11.738;2022-12-18T07:07:22;41.08;;;14.95;;
48040;SDS011;33815;48.386;11.738;2022-12-18T07:09:49;36.53;;;15.88;;
48040;SDS011;33815;48.386;11.738;2022-12-18T07:12:15;43.90;;;17.17;;
48040;SDS011;33815;48.386;11.738;2022-12-18T07:14:40;40.15;;;16.08;;
48040;SDS011;33815;48.386;11.738;2022-12-18T07:17:06;36.53;;;15.55;;
48040;SDS011;33815;48.386;11.738;2022-12-18T07:19:31;36.33;;;14.90;;
48040;SDS011;33815;48.386;11.738;2022-12-18T07:21:56;40.25;;;18.48;;
48040;SDS011;33815;48.386;11.738;2022-12-18T07:24:21;36.25;;;15.23;;
48040;SDS011;33815;48.386;11.738;2022-12-18T07:26:47;45.88;;;16.70;;
48040;SDS011;33815;48.386;11.738;2022-12-18T07:29:12;44.50;;;16.13;;
48040;SDS011;33815;48.386;11.738;2022-12-18T07:31:38;40.22;;;16.92;;
48040;SDS011;33815;48.386;11.738;2022-12-18T07:34:03;38.58;;;16.10;;
48040;SDS011;33815;48.386;11.738;2022-12-18T07:36:29;46.20;;;14.20;;
48040;SDS011;33815;48.386;11.738;2022-12-18T07:38:54;43.70;;;16.85;;
48040;SDS011;33815;48.386;11.738;2022-12-18T07:41:19;39.58;;;15.88;;
48040;SDS011;33815;48.386;11.738;2022-12-18T07:43:46;34.00;;;14.18;;
48040;SDS011;33815;48.386;11.738;2022-12-18T07:46:12;41.42;;;16.25;;
48040;SDS011;33815;48.386;11.738;2022-12-18T07:48:41;38.22;;;16.70;;
48040;SDS011;33815;48.386;11.738;2022-12-18T07:51:07;40.65;;;16.48;;
48040;SDS011;33815;48.386;11.738;2022-12-18T07:53:33;39.60;;;16.60;;
48040;SDS011;33815;48.386;11.738;2022-12-18T07:56:01;37.63;;;16.38;;
48040;SDS011;33815;48.386;11.738;2022-12-18T07:58:29;37.10;;;16.50;;
48040;SDS011;33815;48.386;11.738;2022-12-18T08:01:01;46.30;;;17.48;;
48040;SDS011;33815;48.386;11.738;2022-12-18T08:03:31;35.88;;;16.13;;
48040;SDS011;33815;48.386;11.738;2022-12-18T08:06:03;37.38;;;15.93;;
48040;SDS011;33815;48.386;11.738;2022-12-18T08:08:30;39.60;;;15.93;;
48040;SDS011;33815;48.386;11.738;2022-12-18T08:10:56;36.05;;;15.55;;
48040;SDS011;33815;48.386;11.738;2022-12-18T08:13:22;38.95;;;16.42;;
48040;SDS011;33815;48.386;11.738;2022-12-18T08:15:58;39.53;;;16.42;;
48040;SDS011;33815;48.386;11.738;2022-12-18T08:18:25;39.05;;;15.77;;
48040;SDS011;33815;48.386;11.738;2022-12-18T08:20:50;42.38;;;16.27;;
48040;SDS011;33815;48.386;11.738;2022-12-18T08:23:16;39.83;;;16.38;;
48040;SDS011;33815;48.386;11.738;2022-12-18T08:25:41;36.63;;;17.20;;
48040;SDS011;33815;48.386;11.738;2022-12-18T08:28:06;35.53;;;16.88;;
48040;SDS011;33815;48.386;11.738;2022-12-18T08:30:32;39.30;;;16.52;;
48040;SDS011;33815;48.386;11.738;2022-12-18T08:32:57;40.45;;;17.02;;
48040;SDS011;33815;48.386;11.738;2022-12-18T08:35:23;43.55;;;17.60;;
48040;SDS011;33815;48.386;11.738;2022-12-18T08:37:48;38.55;;;16.60;;
48040;SDS011;33815;48.386;11.738;2022-12-18T08:40:13;39.25;;;16.65;;
48040;SDS011;33815;48.386;11.738;2022-12-18T08:42:39;51.30;;;18.35;;
48040;SDS011;33815;48.386;11.738;2022-12-18T08:45:22;44.95;;;17.08;;
48040;SDS011;33815;48.386;11.738;2022-12-18T08:47:49;41.67;;;17.30;;
48040;SDS011;33815;48.386;11.738;2022-12-18T08:50:15;41.47;;;17.38;;
48040;SDS011;33815;48.386;11.738;2022-12-18T08:52:40;39.92;;;16.95;;
48040;SDS011;33815;48.386;11.738;2022-12-18T08:55:06;39.97;;;17.02;;
48040;SDS011;33815;48.386;11.738;2022-12-18T08:57:31;39.78;;;16.40;;
48040;SDS011;33815;48.386;11.738;2022-12-18T08:59:57;34.35;;;15.30;;
48040;SDS011;33815;48.386;11.738;2022-12-18T09:02:22;37.28;;;17.35;;
48040;SDS011;33815;48.386;11.738;2022-12-18T09:04:47;38.13;;;16.23;;
48040;SDS011;33815;48.386;11.738;2022-12-18T09:07:13;41.08;;;16.50;;
48040;SDS011;33815;48.386;11.738;2022-12-18T09:09:38;39.42;;;15.93;;
48040;SDS011;33815;48.386;11.738;2022-12-18T09:12:03;37.15;;;16.67;;
48040;SDS011;33815;48.386;11.738;2022-12-18T09:14:29;32.90;;;16.20;;
48040;SDS011;33815;48.386;11.738;2022-12-18T09:16:54;40.75;;;18.15;;
48040;SDS011;33815;48.386;11.738;2022-12-18T09:19:19;31.27;;;15.20;;
48040;SDS011;33815;48.386;11.738;2022-12-18T09:21:45;42.72;;;16.42;;
48040;SDS011;33815;48.386;11.738;2022-12-18T09:24:11;46.45;;;16.73;;
48040;SDS011;33815;48.386;11.738;2022-12-18T09:26:38;36.67;;;15.95;;
48040;SDS011;33815;48.386;11.738;2022-12-18T09:29:04;33.17;;;15.23;;
48040;SDS011;33815;48.386;11.738;2022-12-18T09:31:29;33.05;;;14.77;;
48040;SDS011;33815;48.386;11.738;2022-12-18T09:33:55;31.20;;;15.27;;
48040;SDS011;33815;48.386;11.738;2022-12-18T09:36:21;32.85;;;15.85;;
48040;SDS011;33815;48.386;11.738;2022-12-18T09:38:46;34.95;;;15.13;;
48040;SDS011;33815;48.386;11.738;2022-12-18T09:44:28;32.35;;;14.30;;
48040;SDS011;33815;48.386;11.738;2022-12-18T09:46:59;35.90;;;14.00;;
48040;SDS011;33815;48.386;11.738;2022-12-18T09:49:30;32.05;;;14.05;;
48040;SDS011;33815;48.386;11.738;2022-12-18T09:52:00;32.28;;;13.63;;
48040;SDS011;33815;48.386;11.738;2022-12-18T09:54:35;34.42;;;15.20;;
48040;SDS011;33815;48.386;11.738;2022-12-18T09:57:03;33.58;;;15.43;;
48040;SDS011;33815;48.386;11.738;2022-12-18T10:02:18;31.70;;;15.93;;
48040;SDS011;33815;48.386;11.738;2022-12-18T10:04:48;34.30;;;15.30;;
48040;SDS011;33815;48.386;11.738;2022-12-18T10:07:47;34.58;;;16.35;;
48040;SDS011;33815;48.386;11.738;2022-12-18T10:21:23;38.28;;;17.63;;
48040;SDS011;33815;48.386;11.738;2022-12-18T10:26:34;38.10;;;17.45;;
48040;SDS011;33815;48.386;11.738;2022-12-18T10:28:59;40.50;;;17.45;;
48040;SDS011;33815;48.386;11.738;2022-12-18T10:31:25;36.10;;;16.00;;
48040;SDS011;33815;48.386;11.738;2022-12-18T10:33:51;37.22;;;16.27;;
48040;SDS011;33815;48.386;11.738;2022-12-18T10:36:18;38.08;;;16.25;;
48040;SDS011;33815;48.386;11.738;2022-12-18T10:38:44;43.25;;;18.25;;
48040;SDS011;33815;48.386;11.738;2022-12-18T10:43:46;40.85;;;17.63;;
48040;SDS011;33815;48.386;11.738;2022-12-18T10:46:14;35.90;;;16.48;;
48040;SDS011;33815;48.386;11.738;2022-12-18T10:51:20;35.97;;;18.13;;
48040;SDS011;33815;48.386;11.738;2022-12-18T10:56:30;38.33;;;17.27;;
48040;SDS011;33815;48.386;11.738;2022-12-18T10:59:08;40.80;;;18.15;;
48040;SDS011;33815;48.386;11.738;2022-12-18T11:01:51;41.15;;;19.42;;
48040;SDS011;33815;48.386;11.738;2022-12-18T11:06:55;31.98;;;15.80;;
48040;SDS011;33815;48.386;11.738;2022-12-18T11:09:22;35.40;;;16.70;;
48040;SDS011;33815;48.386;11.738;2022-12-18T11:11:50;39.78;;;17.45;;
48040;SDS011;33815;48.386;11.738;2022-12-18T11:14:20;34.95;;;17.83;;
48040;SDS011;33815;48.386;11.738;2022-12-18T11:16:48;34.65;;;17.08;;
48040;SDS011;33815;48.386;11.738;2022-12-18T11:19:19;34.17;;;16.05;;
48040;SDS011;33815;48.386;11.738;2022-12-18T11:21:53;31.90;;;16.13;;
48040;SDS011;33815;48.386;11.738;2022-12-18T11:24:20;31.58;;;15.85;;
48040;SDS011;33815;48.386;11.738;2022-12-18T11:27:03;34.03;;;15.73;;
48040;SDS011;33815;48.386;11.738;2022-12-18T11:29:32;30.95;;;16.23;;
48040;SDS011;33815;48.386;11.738;2022-12-18T11:34:45;34.33;;;17.20;;
48040;SDS011;33815;48.386;11.738;2022-12-18T11:37:13;35.70;;;17.08;;
48040;SDS011;33815;48.386;11.738;2022-12-18T11:39:49;33.03;;;16.20;;
48040;SDS011;33815;48.386;11.738;2022-12-18T11:42:32;37.70;;;16.33;;
48040;SDS011;33815;48.386;11.738;2022-12-18T11:45:09;35.30;;;16.97;;
48040;SDS011;33815;48.386;11.738;2022-12-18T11:48:18;33.88;;;17.13;;
48040;SDS011;33815;48.386;11.738;2022-12-18T11:50:51;36.65;;;17.35;;
48040;SDS011;33815;48.386;11.738;2022-12-18T11:53:18;33.65;;;16.30;;
48040;SDS011;33815;48.386;11.738;2022-12-18T11:59:15;34.28;;;14.80;;
48040;SDS011;33815;48.386;11.738;2022-12-18T12:01:51;31.13;;;15.32;;
48040;SDS011;33815;48.386;11.738;2022-12-18T12:12:30;30.13;;;14.50;;
48040;SDS011;33815;48.386;11.738;2022-12-18T12:17:59;31.60;;;14.98;;
48040;SDS011;33815;48.386;11.738;2022-12-18T12:20:55;30.13;;;14.70;;
48040;SDS011;33815;48.386;11.738;2022-12-18T12:23:33;33.13;;;15.23;;
48040;SDS011;33815;48.386;11.738;2022-12-18T12:26:07;33.03;;;16.05;;
48040;SDS011;33815;48.386;11.738;2022-12-18T12:33:51;36.45;;;16.50;;
48040;SDS011;33815;48.386;11.738;2022-12-18T12:36:25;36.83;;;15.80;;
48040;SDS011;33815;48.386;11.738;2022-12-18T12:39:01;32.83;;;14.85;;
48040;SDS011;33815;48.386;11.738;2022-12-18T12:41:31;29.73;;;14.07;;
48040;SDS011;33815;48.386;11.738;2022-12-18T12:44:25;23.95;;;13.27;;
48040;SDS011;33815;48.386;11.738;2022-12-18T12:46:56;31.05;;;15.45;;
48040;SDS011;33815;48.386;11.738;2022-12-18T12:49:29;25.73;;;13.52;;
48040;SDS011;33815;48.386;11.738;2022-12-18T12:52:03;31.27;;;16.13;;
48040;SDS011;33815;48.386;11.738;2022-12-18T12:54:31;30.25;;;15.07;;
48040;SDS011;33815;48.386;11.738;2022-12-18T12:57:00;34.97;;;16.15;;
48040;SDS011;33815;48.386;11.738;2022-12-18T12:59:40;28.58;;;14.15;;
48040;SDS011;33815;48.386;11.738;2022-12-18T13:08:10;37.65;;;16.25;;
48040;SDS011;33815;48.386;11.738;2022-12-18T13:13:04;36.60;;;16.75;;
48040;SDS011;33815;48.386;11.738;2022-12-18T13:15:47;33.42;;;14.43;;
48040;SDS011;33815;48.386;11.738;2022-12-18T13:18:27;32.45;;;14.93;;
48040;SDS011;33815;48.386;11.738;2022-12-18T13:28:23;31.42;;;15.73;;
48040;SDS011;33815;48.386;11.738;2022-12-18T13:30:58;27.98;;;13.05;;
48040;SDS011;33815;48.386;11.738;2022-12-18T13:38:22;32.73;;;16.43;;
48040;SDS011;33815;48.386;11.738;2022-12-18T13:44:09;26.73;;;14.80;;
48040;SDS011;33815;48.386;11.738;2022-12-18T13:46:24;27.92;;;15.48;;
48040;SDS011;33815;48.386;11.738;2022-12-18T13:51:38;33.50;;;16.33;;
48040;SDS011;33815;48.386;11.738;2022-12-18T13:54:14;34.22;;;17.45;;
48040;SDS011;33815;48.386;11.738;2022-12-18T13:56:45;33.60;;;16.08;;
48040;SDS011;33815;48.386;11.738;2022-12-18T14:01:59;39.55;;;17.35;;
48040;SDS011;33815;48.386;11.738;2022-12-18T14:04:31;34.08;;;16.15;;
48040;SDS011;33815;48.386;11.738;2022-12-18T14:07:01;32.55;;;15.63;;
48040;SDS011;33815;48.386;11.738;2022-12-18T14:09:51;37.45;;;17.58;;
48040;SDS011;33815;48.386;11.738;2022-12-18T14:12:24;33.78;;;16.85;;
48040;SDS011;33815;48.386;11.738;2022-12-18T14:15:24;35.38;;;16.65;;
48040;SDS011;33815;48.386;11.738;2022-12-18T14:17:52;35.25;;;16.48;;
48040;SDS011;33815;48.386;11.738;2022-12-18T14:20:19;35.67;;;16.65;;
48040;SDS011;33815;48.386;11.738;2022-12-18T14:22:46;34.10;;;14.82;;
48040;SDS011;33815;48.386;11.738;2022-12-18T14:25:20;34.90;;;14.88;;
48040;SDS011;33815;48.386;11.738;2022-12-18T14:27:50;29.17;;;14.77;;
48040;SDS011;33815;48.386;11.738;2022-12-18T14:30:24;33.42;;;16.00;;
48040;SDS011;33815;48.386;11.738;2022-12-18T14:32:59;36.83;;;15.07;;
48040;SDS011;33815;48.386;11.738;2022-12-18T14:35:30;34.88;;;15.07;;
48040;SDS011;33815;48.386;11.738;2022-12-18T14:43:51;32.20;;;14.27;;
48040;SDS011;33815;48.386;11.738;2022-12-18T14:46:28;35.55;;;14.98;;
48040;SDS011;33815;48.386;11.738;2022-12-18T14:49:21;30.58;;;14.90;;
48040;SDS011;33815;48.386;11.738;2022-12-18T14:51:55;32.85;;;15.88;;
48040;SDS011;33815;48.386;11.738;2022-12-18T14:54:22;31.05;;;16.90;;
48040;SDS011;33815;48.386;11.738;2022-12-18T14:56:51;38.75;;;15.57;;
48040;SDS011;33815;48.386;11.738;2022-12-18T14:59:25;32.20;;;15.18;;
48040;SDS011;33815;48.386;11.738;2022-12-18T15:01:57;34.10;;;16.55;;
48040;SDS011;33815;48.386;11.738;2022-12-18T15:04:33;36.90;;;16.10;;
48040;SDS011;33815;48.386;11.738;2022-12-18T15:07:20;37.10;;;16.15;;
48040;SDS011;33815;48.386;11.738;2022-12-18T15:12:38;30.20;;;13.95;;
48040;SDS011;33815;48.386;11.738;2022-12-18T15:18:01;40.70;;;17.08;;
48040;SDS011;33815;48.386;11.738;2022-12-18T15:20:31;31.00;;;15.18;;
48040;SDS011;33815;48.386;11.738;2022-12-18T15:23:03;36.00;;;15.88;;
48040;SDS011;33815;48.386;11.738;2022-12-18T15:25:31;36.15;;;16.55;;
48040;SDS011;33815;48.386;11.738;2022-12-18T15:27:59;34.90;;;15.98;;
48040;SDS011;33815;48.386;11.738;2022-12-18T15:30:25;36.78;;;15.15;;
48040;SDS011;33815;48.386;11.738;2022-12-18T15:32:50;36.28;;;16.58;;
48040;SDS011;33815;48.386;11.738;2022-12-18T15:35:23;35.95;;;16.58;;
48040;SDS011;33815;48.386;11.738;2022-12-18T15:37:50;39.53;;;17.65;;
48040;SDS011;33815;48.386;11.738;2022-12-18T15:40:18;39.95;;;16.77;;
48040;SDS011;33815;48.386;11.738;2022-12-18T15:42:45;38.63;;;16.83;;
48040;SDS011;33815;48.386;11.738;2022-12-18T15:45:29;36.42;;;15.02;;
48040;SDS011;33815;48.386;11.738;2022-12-18T15:47:55;34.63;;;16.65;;
48040;SDS011;33815;48.386;11.738;2022-12-18T15:50:20;34.55;;;15.65;;
48040;SDS011;33815;48.386;11.738;2022-12-18T15:52:46;33.83;;;16.92;;
48040;SDS011;33815;48.386;11.738;2022-12-18T15:55:15;32.38;;;16.27;;
48040;SDS011;33815;48.386;11.738;2022-12-18T15:58:02;35.92;;;15.77;;
48040;SDS011;33815;48.386;11.738;2022-12-18T16:00:29;36.15;;;17.60;;
48040;SDS011;33815;48.386;11.738;2022-12-18T16:02:54;37.85;;;16.42;;
48040;SDS011;33815;48.386;11.738;2022-12-18T16:05:20;36.33;;;15.82;;
48040;SDS011;33815;48.386;11.738;2022-12-18T16:07:46;28.38;;;14.00;;
48040;SDS011;33815;48.386;11.738;2022-12-18T16:10:12;33.33;;;14.68;;
48040;SDS011;33815;48.386;11.738;2022-12-18T16:12:38;30.58;;;14.68;;
48040;SDS011;33815;48.386;11.738;2022-12-18T16:15:04;35.33;;;16.08;;
48040;SDS011;33815;48.386;11.738;2022-12-18T16:17:30;28.58;;;14.50;;
48040;SDS011;33815;48.386;11.738;2022-12-18T16:19:55;30.77;;;15.77;;
48040;SDS011;33815;48.386;11.738;2022-12-18T16:22:21;40.08;;;16.52;;
48040;SDS011;33815;48.386;11.738;2022-12-18T16:24:53;35.17;;;16.55;;
48040;SDS011;33815;48.386;11.738;2022-12-18T16:27:20;42.25;;;16.42;;
48040;SDS011;33815;48.386;11.738;2022-12-18T16:29:46;39.63;;;16.23;;